Time;durP1;ratioP1;P1;durP2;ratioP2;P2;SDS_P1;SDS_P2;PMS_P1;PMS_P2;Temp;Humidity;BMP_temperature;BMP_pressure;BME280_temperature;BME280_humidity;BME280_pressure;Samples;Min_cycle;Max_cycle;Signal;HPM_P1;HPM_P2
2023/06/18 00:01:52;;;;;;;12.00;9.87;;;16.60;85.20;;;;;;5094646;27;20481;-60
2023/06/18 00:04:18;;;;;;;10.50;9.10;;;16.60;85.70;;;;;;5074914;27;20469;-60
2023/06/18 00:06:45;;;;;;;14.70;10.03;;;16.60;85.10;;;;;;5075973;27;20479;-60
2023/06/18 00:09:12;;;;;;;16.07;10.03;;;16.40;86.10;;;;;;5092772;27;20477;-60
2023/06/18 00:11:39;;;;;;;11.90;10.60;;;16.30;86.20;;;;;;5096788;27;20473;-59
2023/06/18 00:14:06;;;;;;;14.40;10.30;;;16.10;87.20;;;;;;5093332;27;20482;-59
2023/06/18 00:16:34;;;;;;;17.30;9.93;;;16.00;87.10;;;;;;5105921;27;23023;-59
2023/06/18 00:19:01;;;;;;;11.53;9.07;;;15.80;86.90;;;;;;5102703;27;20645;-58
2023/06/18 00:21:28;;;;;;;11.13;9.37;;;15.80;86.90;;;;;;5091690;27;20944;-58
2023/06/18 00:23:55;;;;;;;14.00;9.87;;;15.60;87.50;;;;;;5103245;27;20879;-58
2023/06/18 00:26:23;;;;;;;10.40;9.30;;;15.40;88.50;;;;;;5105845;27;20473;-60
2023/06/18 00:28:50;;;;;;;15.97;11.23;;;15.20;90.00;;;;;;5073152;27;21327;-59
2023/06/18 00:31:17;;;;;;;18.10;11.93;;;15.00;90.60;;;;;;5082465;27;21150;-59
2023/06/18 00:33:46;;;;;;;19.50;14.63;;;15.00;90.70;;;;;;5098554;27;20986;-59
2023/06/18 00:36:13;;;;;;;17.73;11.43;;;14.80;91.20;;;;;;5105618;27;21032;-59
2023/06/18 00:38:45;;;;;;;20.23;11.00;;;14.70;91.20;;;;;;5102258;27;20504;-59
2023/06/18 00:41:12;;;;;;;17.03;12.63;;;14.60;91.50;;;;;;5097234;27;20515;-59
2023/06/18 00:43:38;;;;;;;21.40;15.17;;;14.50;91.80;;;;;;5102853;27;20484;-59
2023/06/18 00:46:07;;;;;;;14.40;11.80;;;14.50;92.00;;;;;;5100433;27;20620;-59
2023/06/18 00:48:35;;;;;;;23.57;15.20;;;14.50;92.10;;;;;;5101703;27;20844;-59
2023/06/18 00:51:04;;;;;;;15.40;11.00;;;14.50;92.00;;;;;;5089315;27;20478;-59
2023/06/18 00:53:32;;;;;;;22.53;14.67;;;14.00;91.80;;;;;;5086530;27;20484;-59
2023/06/18 00:56:00;;;;;;;16.20;13.00;;;14.70;91.60;;;;;;5098137;27;20953;-58
2023/06/18 00:58:27;;;;;;;11.67;10.37;;;14.90;91.40;;;;;;5100702;27;21190;-59
2023/06/18 01:00:54;;;;;;;13.27;11.87;;;15.00;91.20;;;;;;5103708;27;20580;-59
2023/06/18 01:03:25;;;;;;;14.47;11.77;;;15.00;90.60;;;;;;5104916;27;20484;-59
2023/06/18 01:05:55;;;;;;;17.93;11.23;;;15.10;90.10;;;;;;5087691;27;20947;-59
2023/06/18 01:08:24;;;;;;;14.10;10.40;;;15.10;89.50;;;;;;5099923;27;20657;-59
2023/06/18 01:11:01;;;;;;;17.83;12.10;;;15.20;89.40;;;;;;5105351;27;20574;-59
2023/06/18 01:13:30;;;;;;;15.23;11.27;;;15.20;89.00;;;;;;5105348;27;20480;-59
2023/06/18 01:15:58;;;;;;;18.83;12.70;;;15.20;89.00;;;;;;5103010;27;20485;-59
2023/06/18 01:18:26;;;;;;;17.47;10.80;;;15.20;90.00;;;;;;5089015;27;20552;-59
2023/06/18 01:20:55;;;;;;;17.70;11.80;;;15.20;89.90;;;;;;5102750;27;20472;-59
2023/06/18 01:23:28;;;;;;;23.03;13.17;;;15.20;90.00;;;;;;5102955;27;20570;-59
2023/06/18 01:25:57;;;;;;;20.27;11.13;;;15.20;89.40;;;;;;5088220;27;20565;-59
2023/06/18 01:28:24;;;;;;;17.53;12.77;;;15.20;89.30;;;;;;5097325;27;20577;-59
2023/06/18 01:30:53;;;;;;;16.47;12.03;;;15.20;88.70;;;;;;5090865;27;20470;-59
2023/06/18 01:33:21;;;;;;;18.83;11.90;;;15.20;89.80;;;;;;5099223;27;20481;-59
2023/06/18 01:35:48;;;;;;;24.40;14.83;;;15.20;89.20;;;;;;5101373;27;20473;-59
2023/06/18 01:38:30;;;;;;;24.60;12.57;;;15.10;89.50;;;;;;5105231;27;20515;-59
2023/06/18 01:41:02;;;;;;;20.73;15.00;;;15.00;89.40;;;;;;5098912;27;20477;-59
2023/06/18 01:43:37;;;;;;;19.47;13.40;;;14.80;90.20;;;;;;5103130;27;20558;-59
2023/06/18 01:46:07;;;;;;;21.27;13.80;;;14.60;90.60;;;;;;5072888;28;20859;-58
2023/06/18 01:48:38;;;;;;;26.90;16.20;;;14.50;90.50;;;;;;5071377;28;21127;-59
2023/06/18 01:51:06;;;;;;;22.50;11.70;;;14.50;90.30;;;;;;5068378;28;20480;-59
2023/06/18 01:53:36;;;;;;;19.10;13.70;;;14.40;90.60;;;;;;5084192;28;20508;-60
2023/06/18 01:56:04;;;;;;;21.27;14.23;;;14.40;90.80;;;;;;5082652;28;20484;-59
2023/06/18 01:58:33;;;;;;;23.90;15.60;;;14.40;90.90;;;;;;5089230;28;20804;-59
2023/06/18 02:01:00;;;;;;;25.53;14.33;;;14.40;90.80;;;;;;5066461;28;21149;-58
2023/06/18 02:03:27;;;;;;;20.77;13.63;;;14.30;90.70;;;;;;5083921;28;20685;-58
2023/06/18 02:05:54;;;;;;;35.87;18.70;;;14.30;91.10;;;;;;5080195;28;20469;-58
2023/06/18 02:08:21;;;;;;;19.73;12.37;;;14.40;90.90;;;;;;5097597;28;20873;-58
2023/06/18 02:10:49;;;;;;;39.43;19.37;;;14.50;90.70;;;;;;5098987;28;20483;-59
2023/06/18 02:13:16;;;;;;;20.20;13.07;;;14.50;90.60;;;;;;5094270;28;20550;-59
2023/06/18 02:15:43;;;;;;;30.43;17.97;;;14.50;90.70;;;;;;5078944;28;20486;-59
2023/06/18 02:18:11;;;;;;;24.53;13.60;;;14.40;90.80;;;;;;5085119;28;20827;-59
2023/06/18 02:20:38;;;;;;;22.30;15.33;;;14.20;91.40;;;;;;5081293;28;20504;-58
2023/06/18 02:23:05;;;;;;;26.50;16.20;;;14.10;92.20;;;;;;5077706;28;20479;-58
2023/06/18 02:25:32;;;;;;;23.87;13.40;;;14.00;91.90;;;;;;5097955;28;20477;-58
2023/06/18 02:28:00;;;;;;;30.07;16.10;;;14.00;91.70;;;;;;5076071;28;20767;-59
2023/06/18 02:30:29;;;;;;;17.20;12.50;;;14.00;91.50;;;;;;5046498;28;21145;-59
2023/06/18 02:32:55;;;;;;;27.47;16.83;;;14.10;91.30;;;;;;5082166;28;20481;-59
2023/06/18 02:35:22;;;;;;;19.47;14.00;;;14.10;91.50;;;;;;5056865;28;20486;-59
2023/06/18 02:37:50;;;;;;;29.20;16.87;;;14.10;91.30;;;;;;5089699;28;20479;-59
2023/06/18 02:40:17;;;;;;;19.23;13.17;;;14.20;91.20;;;;;;5098748;28;20473;-58
2023/06/18 02:42:48;;;;;;;29.43;16.80;;;14.10;91.20;;;;;;5098182;28;20753;-59
2023/06/18 02:45:17;;;;;;;21.50;15.00;;;14.10;91.20;;;;;;5082685;28;20997;-59
2023/06/18 02:47:44;;;;;;;30.33;16.17;;;14.10;90.60;;;;;;5100700;28;20480;-59
2023/06/18 02:50:12;;;;;;;22.10;14.27;;;14.10;91.00;;;;;;5098887;28;20526;-61
2023/06/18 02:52:39;;;;;;;23.60;13.20;;;14.20;91.10;;;;;;5085726;28;20515;-59
2023/06/18 02:55:07;;;;;;;24.63;14.13;;;14.20;90.70;;;;;;5090131;28;21077;-59
2023/06/18 02:57:34;;;;;;;23.00;15.27;;;14.30;90.60;;;;;;5064725;28;20510;-59
2023/06/18 03:00:01;;;;;;;24.83;15.77;;;18.00;92.40;;;;;;5073194;28;20482;-58
2023/06/18 03:02:29;;;;;;;21.23;12.20;;;14.30;90.50;;;;;;5090172;28;20490;-58
2023/06/18 03:04:56;;;;;;;33.80;18.93;;;14.20;90.60;;;;;;5067905;28;20884;-58
2023/06/18 03:07:23;;;;;;;20.63;13.67;;;14.00;91.20;;;;;;5097180;28;20466;-58
2023/06/18 03:09:49;;;;;;;37.57;17.73;;;13.80;91.60;;;;;;5081254;28;20488;-59
2023/06/18 03:12:16;;;;;;;21.73;14.03;;;13.70;91.20;;;;;;5093816;28;20486;-59
2023/06/18 03:14:43;;;;;;;28.17;16.90;;;13.80;91.20;;;;;;5091359;28;20474;-58
2023/06/18 03:17:10;;;;;;;25.07;13.50;;;13.80;91.20;;;;;;5087855;28;20477;-58
2023/06/18 03:19:38;;;;;;;22.60;14.20;;;13.80;91.20;;;;;;5087860;28;21021;-59
2023/06/18 03:22:06;;;;;;;23.30;14.10;;;13.80;91.10;;;;;;5095411;28;20484;-58
2023/06/18 03:24:34;;;;;;;22.73;12.50;;;13.70;91.10;;;;;;5098134;28;20474;-58
2023/06/18 03:27:01;;;;;;;23.30;14.33;;;13.70;91.10;;;;;;5060965;28;20492;-59
2023/06/18 03:29:29;;;;;;;22.37;14.00;;;13.70;91.00;;;;;;5074884;27;20480;-59
2023/06/18 03:31:56;;;;;;;32.40;18.27;;;13.60;91.30;;;;;;5098446;27;21055;-59
2023/06/18 03:34:23;;;;;;;18.00;12.70;;;13.50;91.30;;;;;;5078389;28;20497;-59
2023/06/18 03:36:53;;;;;;;37.37;18.13;;;13.40;91.90;;;;;;5055535;28;20471;-59
2023/06/18 03:39:20;;;;;;;20.57;13.60;;;13.20;92.30;;;;;;5060830;28;21017;-58
2023/06/18 03:41:46;;;;;;;33.10;18.60;;;13.10;92.80;;;;;;5093968;28;20627;-59
2023/06/18 03:44:13;;;;;;;19.93;13.80;;;13.00;93.20;;;;;;5082034;28;20478;-59
2023/06/18 03:46:40;;;;;;;23.40;15.03;;;13.00;93.50;;;;;;5041056;28;20987;-59
2023/06/18 03:49:07;;;;;;;24.20;15.27;;;13.00;93.40;;;;;;5075103;28;20481;-58
2023/06/18 03:51:34;;;;;;;25.50;13.60;;;13.20;92.90;;;;;;5095655;28;20473;-59
2023/06/18 03:54:03;;;;;;;25.00;15.00;;;13.10;92.60;;;;;;5098149;27;20874;-58
2023/06/18 03:56:29;;;;;;;23.73;14.97;;;13.10;92.60;;;;;;5057080;28;20470;-58
2023/06/18 03:58:57;;;;;;;27.27;15.40;;;13.20;92.50;;;;;;5072683;28;20490;-59
2023/06/18 04:01:26;;;;;;;23.77;15.20;;;13.20;92.50;;;;;;5050321;28;20869;-59
2023/06/18 04:03:53;;;;;;;35.07;18.93;;;13.10;92.40;;;;;;5062557;28;20884;-59
2023/06/18 04:06:20;;;;;;;16.90;13.43;;;13.20;92.20;;;;;;5065385;28;20469;-59
2023/06/18 04:08:47;;;;;;;32.23;18.50;;;13.20;92.10;;;;;;5052355;28;20482;-59
2023/06/18 04:11:15;;;;;;;17.03;12.90;;;13.30;92.50;;;;;;5068214;28;20478;-58
2023/06/18 04:13:42;;;;;;;38.50;14.73;;;13.30;92.30;;;;;;5051743;28;20478;-59
2023/06/18 04:16:10;;;;;;;25.30;15.50;;;13.40;92.10;;;;;;5074591;28;20473;-58
2023/06/18 04:18:37;;;;;;;20.17;13.10;;;13.40;92.10;;;;;;5073027;28;20491;-59
2023/06/18 04:21:04;;;;;;;19.87;13.20;;;13.50;92.00;;;;;;5077106;28;20474;-58
2023/06/18 04:23:31;;;;;;;22.50;14.43;;;13.50;92.00;;;;;;5055761;28;21102;-58
2023/06/18 04:25:58;;;;;;;26.80;17.10;;;13.50;91.80;;;;;;5052670;28;20528;-59
2023/06/18 04:28:26;;;;;;;20.10;12.30;;;13.60;92.20;;;;;;5067035;28;20493;-58
2023/06/18 04:30:53;;;;;;;24.83;15.53;;;13.70;92.20;;;;;;5056452;28;20872;-59
2023/06/18 04:33:20;;;;;;;23.53;14.63;;;13.80;92.30;;;;;;5066577;28;20479;-59
2023/06/18 04:35:46;;;;;;;21.10;14.40;;;13.90;92.10;;;;;;5077332;28;20479;-57
2023/06/18 04:38:13;;;;;;;22.17;13.53;;;13.90;91.90;;;;;;5074295;28;20478;-58
2023/06/18 04:40:40;;;;;;;20.03;13.57;;;14.00;92.00;;;;;;5075002;28;20566;-58
2023/06/18 04:43:07;;;;;;;26.60;16.40;;;14.10;92.20;;;;;;5074941;28;20484;-58
2023/06/18 04:45:37;;;;;;;21.97;14.57;;;14.20;92.30;;;;;;5064779;28;20495;-59
2023/06/18 04:48:04;;;;;;;23.67;15.73;;;14.40;92.40;;;;;;5063857;28;20561;-58
2023/06/18 04:50:31;;;;;;;22.87;12.80;;;14.50;92.10;;;;;;5057271;28;20509;-58
2023/06/18 04:52:59;;;;;;;32.10;19.13;;;14.50;92.10;;;;;;5064908;28;20483;-58
2023/06/18 04:55:27;;;;;;;19.30;13.80;;;14.70;92.20;;;;;;5061057;28;20501;-58
2023/06/18 04:57:54;;;;;;;31.90;17.20;;;14.80;92.20;;;;;;5083097;28;20482;-58
2023/06/18 05:00:21;;;;;;;20.50;15.33;;;14.90;92.40;;;;;;5076192;28;20476;-58
2023/06/18 05:02:49;;;;;;;32.73;19.80;;;15.00;92.50;;;;;;5080866;28;20801;-58
2023/06/18 05:05:16;;;;;;;24.10;14.00;;;15.20;92.20;;;;;;5073742;28;20507;-59
2023/06/18 05:07:43;;;;;;;20.30;15.00;;;15.20;92.30;;;;;;5079427;28;20713;-58
2023/06/18 05:10:11;;;;;;;20.67;14.50;;;15.40;92.20;;;;;;5070776;28;20848;-58
2023/06/18 05:12:40;;;;;;;22.90;15.57;;;15.50;92.40;;;;;;5075341;28;20479;-59
2023/06/18 05:15:08;;;;;;;24.53;15.70;;;15.60;92.40;;;;;;5065900;28;20470;-59
2023/06/18 05:17:35;;;;;;;25.50;15.40;;;15.60;92.30;;;;;;5066787;28;20474;-58
2023/06/18 05:20:04;;;;;;;25.00;15.80;;;15.70;92.50;;;;;;5062064;28;20485;-58
2023/06/18 05:22:31;;;;;;;21.67;15.77;;;15.80;92.60;;;;;;5064401;28;20974;-59
2023/06/18 05:24:59;;;;;;;32.93;20.20;;;15.90;92.60;;;;;;5084410;28;20475;-59
2023/06/18 05:27:28;;;;;;;25.87;16.37;;;15.90;92.50;;;;;;5055481;28;20486;-59
2023/06/18 05:29:55;;;;;;;27.47;18.47;;;16.00;92.30;;;;;;5062222;28;20490;-59
2023/06/18 05:32:22;;;;;;;19.13;15.27;;;16.10;92.50;;;;;;5065955;28;20549;-58
2023/06/18 05:34:49;;;;;;;36.90;21.13;;;16.20;92.70;;;;;;5100044;27;21037;-58
2023/06/18 05:37:17;;;;;;;21.60;14.93;;;16.30;92.60;;;;;;5044660;28;20472;-59
2023/06/18 05:39:45;;;;;;;23.43;18.37;;;15.90;92.30;;;;;;5069124;27;20453;-58
2023/06/18 05:42:12;;;;;;;24.70;18.60;;;16.60;92.70;;;;;;5104219;27;20500;-58
2023/06/18 05:44:38;;;;;;;28.80;19.50;;;16.70;92.90;;;;;;5080345;27;20901;-59
2023/06/18 05:47:06;;;;;;;26.00;19.20;;;16.90;92.70;;;;;;5092603;28;20492;-59
2023/06/18 05:49:32;;;;;;;21.90;17.07;;;17.00;92.50;;;;;;5092339;27;20472;-59
2023/06/18 05:51:59;;;;;;;26.73;20.43;;;17.10;92.40;;;;;;5092890;27;20508;-59
2023/06/18 05:54:27;;;;;;;32.63;19.33;;;17.20;92.60;;;;;;5104381;27;20482;-59
2023/06/18 05:56:54;;;;;;;25.67;18.13;;;17.30;92.30;;;;;;5066373;28;20482;-59
2023/06/18 05:59:21;;;;;;;21.40;16.03;;;17.40;92.50;;;;;;5061339;28;20833;-59
2023/06/18 06:01:48;;;;;;;38.83;20.83;;;17.50;92.30;;;;;;5081810;28;20819;-59
2023/06/18 06:04:15;;;;;;;25.87;18.03;;;17.60;92.30;;;;;;5095581;28;20474;-59
2023/06/18 06:06:42;;;;;;;23.23;17.03;;;17.60;92.20;;;;;;5081234;27;20829;-59
2023/06/18 06:09:09;;;;;;;26.00;16.57;;;17.80;91.90;;;;;;5078088;28;20466;-59
2023/06/18 06:11:37;;;;;;;20.57;15.73;;;17.90;91.80;;;;;;5096555;28;20554;-59
2023/06/18 06:14:05;;;;;;;19.53;16.73;;;18.00;91.60;;;;;;5096845;28;20584;-59
2023/06/18 06:16:31;;;;;;;26.77;19.10;;;18.20;91.80;;;;;;5095951;28;20474;-59
2023/06/18 06:18:58;;;;;;;20.63;16.27;;;18.30;91.20;;;;;;5098219;28;20474;-59
2023/06/18 06:21:25;;;;;;;20.77;16.20;;;18.50;91.30;;;;;;5084324;28;20482;-59
2023/06/18 06:23:52;;;;;;;25.33;19.40;;;18.60;91.60;;;;;;5073284;28;20479;-59
2023/06/18 06:26:19;;;;;;;19.33;15.90;;;18.80;91.30;;;;;;5084835;28;20486;-59
2023/06/18 06:28:47;;;;;;;23.33;17.33;;;18.90;91.50;;;;;;5093859;28;20484;-59
2023/06/18 06:31:14;;;;;;;19.33;16.57;;;19.10;90.90;;;;;;5096858;28;20498;-59
2023/06/18 06:33:40;;;;;;;18.70;15.43;;;19.30;90.80;;;;;;5095769;28;20479;-59
2023/06/18 06:36:09;;;;;;;23.20;18.23;;;19.40;90.60;;;;;;5087281;28;20470;-59
2023/06/18 06:38:36;;;;;;;34.47;16.20;;;19.70;90.10;;;;;;5082754;28;21228;-59
2023/06/18 06:41:03;;;;;;;18.30;14.60;;;19.90;90.50;;;;;;5081059;28;20570;-59
2023/06/18 06:43:30;;;;;;;17.53;15.63;;;20.10;89.60;;;;;;5084025;28;20477;-60
2023/06/18 06:45:58;;;;;;;34.83;18.03;;;20.40;88.80;;;;;;5088987;28;20878;-60
2023/06/18 06:48:25;;;;;;;17.97;15.13;;;20.50;90.00;;;;;;5094101;28;20494;-60
2023/06/18 06:50:53;;;;;;;23.87;16.73;;;20.70;89.50;;;;;;5093424;28;20838;-59
2023/06/18 06:53:20;;;;;;;14.80;13.10;;;20.90;88.90;;;;;;5090428;28;20489;-60
2023/06/18 06:55:47;;;;;;;21.43;17.07;;;21.10;88.20;;;;;;5073020;28;20503;-60
2023/06/18 06:58:13;;;;;;;17.50;15.47;;;21.20;87.60;;;;;;5080059;28;20524;-59
2023/06/18 07:00:40;;;;;;;16.70;13.70;;;21.60;86.90;;;;;;5097080;28;20841;-59
2023/06/18 07:03:09;;;;;;;15.70;14.10;;;21.80;88.00;;;;;;5094761;28;20466;-60
2023/06/18 07:05:36;;;;;;;16.80;14.20;;;22.10;87.00;;;;;;5075782;27;20868;-59
2023/06/18 07:08:05;;;;;;;31.97;14.93;;;22.30;86.70;;;;;;5087604;28;21236;-59
2023/06/18 07:10:32;;;;;;;15.33;13.73;;;22.30;83.70;;;;;;5093694;28;20477;-59
2023/06/18 07:12:59;;;;;;;23.53;17.03;;;22.30;85.00;;;;;;5088085;28;20799;-60
2023/06/18 07:15:26;;;;;;;20.73;13.60;;;22.50;86.30;;;;;;5086406;28;20642;-59
2023/06/18 07:17:52;;;;;;;19.57;17.10;;;22.50;85.30;;;;;;5069711;28;20480;-60
2023/06/18 07:20:21;;;;;;;16.47;13.87;;;22.60;85.70;;;;;;5084279;28;20492;-60
2023/06/18 07:22:48;;;;;;;29.27;15.53;;;22.70;85.90;;;;;;5063590;28;20564;-59
2023/06/18 07:25:15;;;;;;;15.90;14.20;;;22.80;84.60;;;;;;5092183;28;20478;-60
2023/06/18 07:27:41;;;;;;;17.03;15.27;;;23.00;85.90;;;;;;5090975;28;20475;-60
2023/06/18 07:30:09;;;;;;;25.50;14.80;;;23.20;85.20;;;;;;5088648;28;20473;-60
2023/06/18 07:32:36;;;;;;;17.40;13.67;;;23.50;85.70;;;;;;5095460;28;20597;-60
2023/06/18 07:35:03;;;;;;;20.53;14.37;;;23.90;84.60;;;;;;5085517;28;20475;-60
2023/06/18 07:37:32;;;;;;;19.60;13.03;;;24.30;83.90;;;;;;5056754;28;20541;-61
2023/06/18 07:39:58;;;;;;;17.60;15.27;;;24.50;82.40;;;;;;5083452;28;20494;-60
2023/06/18 07:42:25;;;;;;;23.53;14.17;;;24.80;81.00;;;;;;5088383;28;20487;-60
2023/06/18 07:44:52;;;;;;;20.00;13.17;;;25.20;80.10;;;;;;5091319;28;20482;-60
2023/06/18 07:47:19;;;;;;;13.60;12.30;;;25.40;80.70;;;;;;5095060;28;20905;-60
2023/06/18 07:49:46;;;;;;;20.80;15.97;;;25.70;81.10;;;;;;5091233;28;20475;-60
2023/06/18 07:52:13;;;;;;;18.70;12.40;;;26.10;78.00;;;;;;5080541;28;20487;-60
2023/06/18 07:54:41;;;;;;;15.47;13.90;;;26.30;77.80;;;;;;5070107;28;20729;-60
2023/06/18 07:57:08;;;;;;;13.50;11.93;;;26.50;76.50;;;;;;5070190;28;20598;-60
2023/06/18 07:59:35;;;;;;;21.43;16.77;;;26.80;76.00;;;;;;5055230;28;20483;-60
2023/06/18 08:02:02;;;;;;;14.33;12.70;;;27.00;76.00;;;;;;5098847;27;20480;-59
2023/06/18 08:04:28;;;;;;;16.23;13.60;;;27.20;76.00;;;;;;5088259;28;20488;-60
2023/06/18 08:06:55;;;;;;;19.53;13.60;;;27.40;75.30;;;;;;5087918;28;20483;-60
2023/06/18 08:09:22;;;;;;;13.57;12.17;;;27.70;76.40;;;;;;5093316;28;20499;-60
2023/06/18 08:11:51;;;;;;;17.40;15.63;;;27.80;75.30;;;;;;5089032;28;20481;-60
2023/06/18 08:14:18;;;;;;;14.83;10.60;;;28.10;73.60;;;;;;5095775;28;20496;-60
2023/06/18 08:16:45;;;;;;;16.67;11.57;;;28.50;71.30;;;;;;5096224;28;20485;-60
2023/06/18 08:19:12;;;;;;;12.50;11.30;;;28.50;68.00;;;;;;5095493;28;20819;-60
2023/06/18 08:21:39;;;;;;;12.27;10.70;;;28.40;66.90;;;;;;5095436;28;20506;-60
2023/06/18 08:24:06;;;;;;;13.33;12.07;;;28.60;63.90;;;;;;5095804;28;20466;-60
2023/06/18 08:26:33;;;;;;;13.37;12.07;;;28.80;68.50;;;;;;5094953;28;20500;-60
2023/06/18 08:29:01;;;;;;;15.23;12.27;;;28.80;62.80;;;;;;5092634;28;20795;-60
2023/06/18 08:31:29;;;;;;;13.00;11.80;;;28.90;63.00;;;;;;5082160;28;21035;-60
2023/06/18 08:33:56;;;;;;;13.83;12.40;;;28.90;61.90;;;;;;5094035;28;20899;-60
2023/06/18 08:36:22;;;;;;;16.20;11.30;;;29.00;64.30;;;;;;5094385;28;20489;-60
2023/06/18 08:38:50;;;;;;;18.50;14.13;;;29.00;63.30;;;;;;5094254;28;20743;-60
2023/06/18 08:41:17;;;;;;;13.30;11.87;;;28.80;61.70;;;;;;5085785;28;20481;-60
2023/06/18 08:43:45;;;;;;;14.73;10.80;;;28.70;62.00;;;;;;5093491;28;20483;-60
2023/06/18 08:46:15;;;;;;;15.30;11.80;;;28.60;61.00;;;;;;5093657;28;20579;-61
2023/06/18 08:48:45;;;;;;;13.57;12.20;;;28.80;63.70;;;;;;5093125;28;20481;-60
2023/06/18 08:51:12;;;;;;;13.93;11.93;;;29.00;63.00;;;;;;5094950;28;20811;-60
2023/06/18 08:53:45;;;;;;;13.03;11.10;;;29.10;61.20;;;;;;5095444;28;21000;-60
2023/06/18 08:56:15;;;;;;;12.30;11.10;;;29.50;64.70;;;;;;5089541;28;20520;-61
2023/06/18 08:58:46;;;;;;;12.17;10.87;;;29.70;60.40;;;;;;5095724;28;20578;-60
2023/06/18 09:01:15;;;;;;;12.43;11.20;;;29.70;58.00;;;;;;5095909;28;20487;-60
2023/06/18 09:03:43;;;;;;;17.50;12.07;;;29.60;57.00;;;;;;5096449;28;20473;-60
2023/06/18 09:06:10;;;;;;;19.10;12.20;;;29.70;57.90;;;;;;5077638;28;20497;-61
2023/06/18 09:08:38;;;;;;;10.50;9.50;;;29.90;59.60;;;;;;5092320;28;20485;-61
2023/06/18 09:11:06;;;;;;;11.10;10.10;;;30.10;58.20;;;;;;5058285;28;20488;-60
2023/06/18 09:13:33;;;;;;;10.83;9.60;;;30.30;58.30;;;;;;5086822;28;20464;-61
2023/06/18 09:16:00;;;;;;;11.37;10.20;;;30.20;56.00;;;;;;5086481;28;20480;-61
2023/06/18 09:18:28;;;;;;;12.80;9.50;;;30.30;56.90;;;;;;5097052;28;20488;-60
2023/06/18 09:20:55;;;;;;;10.73;9.73;;;30.40;58.50;;;;;;5095309;28;20488;-61
2023/06/18 09:23:22;;;;;;;10.17;9.27;;;30.70;57.60;;;;;;5096770;28;21096;-61
2023/06/18 09:25:51;;;;;;;14.07;10.20;;;30.90;56.20;;;;;;5095166;28;20596;-61
2023/06/18 09:28:19;;;;;;;10.77;9.77;;;31.00;59.20;;;;;;5095095;28;20846;-60
2023/06/18 09:30:50;;;;;;;8.93;8.00;;;30.90;53.60;;;;;;5072126;28;20464;-61
2023/06/18 09:33:29;;;;;;;10.83;9.50;;;31.10;58.60;;;;;;5060984;28;20572;-61
2023/06/18 09:36:04;;;;;;;12.70;9.30;;;31.40;57.70;;;;;;5095834;28;20484;-61
2023/06/18 09:38:35;;;;;;;10.90;9.90;;;31.70;58.40;;;;;;5076321;28;20452;-61
2023/06/18 09:41:04;;;;;;;9.77;8.93;;;31.80;53.40;;;;;;5077305;28;20456;-60
2023/06/18 09:43:35;;;;;;;12.60;8.50;;;31.90;56.60;;;;;;5077812;28;20459;-60
2023/06/18 09:46:05;;;;;;;9.67;8.67;;;32.10;57.80;;;;;;5076855;28;20518;-61
2023/06/18 09:48:35;;;;;;;13.20;8.93;;;32.40;53.80;;;;;;5079153;28;20845;-61
2023/06/18 09:51:02;;;;;;;10.33;8.67;;;32.40;51.70;;;;;;5095002;28;20462;-61
2023/06/18 09:53:29;;;;;;;8.83;8.10;;;32.40;52.50;;;;;;5096956;28;20485;-62
2023/06/18 09:56:11;;;;;;;8.30;7.60;;;32.40;49.20;;;;;;5069482;28;20494;-61
2023/06/18 09:58:45;;;;;;;11.93;8.30;;;32.30;52.20;;;;;;5060365;28;20506;-61
2023/06/18 10:01:12;;;;;;;15.20;8.73;;;32.20;48.40;;;;;;5067973;28;20467;-61
2023/06/18 10:03:41;;;;;;;10.10;8.40;;;32.30;51.50;;;;;;5070731;28;20474;-62
2023/06/18 10:06:17;;;;;;;8.83;8.03;;;32.00;48.30;;;;;;5068202;28;20482;-61
2023/06/18 10:08:46;;;;;;;11.97;9.47;;;32.10;51.50;;;;;;5066027;28;21241;-61
2023/06/18 10:11:14;;;;;;;8.87;8.07;;;32.20;50.90;;;;;;5072734;28;20469;-61
2023/06/18 10:13:47;;;;;;;7.47;6.90;;;32.30;50.70;;;;;;5065771;28;20474;-61
2023/06/18 10:16:16;;;;;;;9.03;8.13;;;32.30;49.30;;;;;;5068329;28;20456;-61
2023/06/18 10:18:56;;;;;;;8.67;7.87;;;32.50;50.70;;;;;;5070471;28;20457;-61
2023/06/18 10:21:23;;;;;;;10.90;7.20;;;32.80;50.70;;;;;;5069668;28;20457;-62
2023/06/18 10:23:54;;;;;;;8.03;7.33;;;33.00;51.70;;;;;;5075616;28;20451;-61
2023/06/18 10:26:22;;;;;;;8.40;7.60;;;33.30;52.30;;;;;;5067972;28;20576;-61
2023/06/18 10:28:50;;;;;;;8.60;7.80;;;33.60;52.90;;;;;;5095680;28;20537;-62
2023/06/18 10:31:19;;;;;;;9.37;7.30;;;33.60;49.60;;;;;;5069527;28;20555;-62
2023/06/18 10:33:48;;;;;;;8.10;7.50;;;33.60;51.30;;;;;;5065641;28;20462;-62
2023/06/18 10:36:15;;;;;;;7.83;6.90;;;33.70;49.20;;;;;;5066869;28;20451;-62
2023/06/18 10:38:43;;;;;;;7.80;7.20;;;33.80;50.00;;;;;;5060595;28;20829;-62
2023/06/18 10:41:11;;;;;;;7.23;6.50;;;33.70;47.30;;;;;;5067235;28;20456;-62
2023/06/18 10:43:41;;;;;;;8.00;6.73;;;33.50;50.70;;;;;;5078241;28;20558;-62
2023/06/18 10:46:12;;;;;;;8.13;7.47;;;33.50;51.20;;;;;;5089400;28;21010;-61
2023/06/18 10:48:39;;;;;;;7.80;7.13;;;33.80;51.90;;;;;;5075710;28;20454;-61
2023/06/18 10:51:15;;;;;;;9.23;6.60;;;33.90;49.10;;;;;;5077408;28;20953;-60
2023/06/18 10:53:43;;;;;;;14.23;8.50;;;33.60;47.60;;;;;;5072448;28;20464;-61
2023/06/18 10:56:09;;;;;;;7.83;7.23;;;33.90;51.30;;;;;;5078348;28;20497;-61
2023/06/18 10:58:38;;;;;;;7.83;7.17;;;33.90;50.60;;;;;;5076648;28;20491;-61
2023/06/18 11:01:06;;;;;;;12.73;6.87;;;34.00;49.80;;;;;;5083969;28;20453;-61
2023/06/18 11:03:37;;;;;;;7.13;6.43;;;34.00;46.60;;;;;;5081243;28;20459;-61
2023/06/18 11:06:09;;;;;;;7.80;7.00;;;34.10;50.50;;;;;;5075077;28;20479;-62
2023/06/18 11:08:37;;;;;;;8.30;6.90;;;33.90;48.40;;;;;;5073673;28;20483;-62
2023/06/18 11:11:06;;;;;;;7.93;7.13;;;33.80;49.20;;;;;;5097313;28;20482;-62
2023/06/18 11:13:37;;;;;;;8.20;7.40;;;33.30;46.90;;;;;;5091015;28;20672;-61
2023/06/18 11:16:13;;;;;;;7.60;6.90;;;33.40;49.80;;;;;;5081332;27;21040;-62
2023/06/18 11:18:41;;;;;;;9.40;7.20;;;33.40;47.70;;;;;;5080504;27;20484;-62
2023/06/18 11:21:14;;;;;;;10.90;7.73;;;33.60;51.10;;;;;;5061062;28;20471;-61
2023/06/18 11:23:43;;;;;;;9.20;7.43;;;33.50;51.00;;;;;;5070429;28;20836;-61
2023/06/18 11:26:14;;;;;;;7.70;6.90;;;33.10;49.20;;;;;;5078634;28;20521;-61
2023/06/18 11:28:42;;;;;;;9.37;7.50;;;33.20;50.20;;;;;;5077827;28;20598;-61
2023/06/18 11:31:09;;;;;;;7.40;6.70;;;33.40;53.30;;;;;;5070458;28;20901;-61
2023/06/18 11:33:36;;;;;;;12.37;7.20;;;33.70;49.10;;;;;;5091757;28;20458;-61
2023/06/18 11:36:09;;;;;;;8.60;7.70;;;33.50;49.40;;;;;;5080450;28;20461;-61
2023/06/18 11:38:36;;;;;;;12.07;9.30;;;33.10;48.20;;;;;;5060027;28;20444;-61
2023/06/18 11:41:04;;;;;;;11.87;8.50;;;32.70;48.60;;;;;;5077914;28;20441;-61
2023/06/18 11:43:45;;;;;;;9.23;8.40;;;32.80;50.70;;;;;;5079363;28;20453;-61
2023/06/18 11:46:26;;;;;;;20.93;8.63;;;33.00;49.70;;;;;;5065747;28;20481;-61
2023/06/18 11:48:54;;;;;;;11.90;8.00;;;33.30;48.80;;;;;;5077336;27;21157;-61
2023/06/18 11:51:21;;;;;;;9.23;8.47;;;33.20;48.50;;;;;;5077771;28;20478;-61
2023/06/18 11:53:48;;;;;;;11.57;7.40;;;33.50;53.40;;;;;;5064181;28;20494;-62
2023/06/18 11:56:16;;;;;;;8.70;7.83;;;33.60;49.50;;;;;;5060026;28;20788;-61
2023/06/18 11:58:43;;;;;;;8.40;7.70;;;33.70;49.00;;;;;;5071414;28;20630;-62
2023/06/18 12:01:10;;;;;;;8.73;7.87;;;33.70;49.50;;;;;;5081318;28;20454;-62
2023/06/18 12:03:37;;;;;;;8.77;7.00;;;33.50;48.60;;;;;;5083620;28;20475;-61
2023/06/18 12:06:13;;;;;;;9.83;7.60;;;33.70;51.20;;;;;;5079402;28;20490;-61
2023/06/18 12:08:45;;;;;;;8.37;7.67;;;33.50;49.80;;;;;;5060028;28;20450;-62
2023/06/18 12:11:23;;;;;;;8.00;7.20;;;;;;;;;;5076073;28;20493;-62
2023/06/18 12:13:52;;;;;;;8.40;7.60;;;33.20;50.00;;;;;;5075459;28;20494;-61
2023/06/18 12:16:27;;;;;;;9.50;7.13;;;33.20;50.30;;;;;;5070821;28;20855;-61
2023/06/18 12:19:00;;;;;;;10.50;7.90;;;33.10;48.20;;;;;;5070088;28;20551;-61
2023/06/18 12:21:27;;;;;;;7.47;6.87;;;33.00;47.70;;;;;;5075904;28;20534;-61
2023/06/18 12:23:54;;;;;;;7.93;7.30;;;33.00;48.40;;;;;;5073688;28;20453;-61
2023/06/18 12:26:23;;;;;;;12.10;7.17;;;32.80;50.30;;;;;;5074632;28;21009;-61
2023/06/18 12:28:50;;;;;;;8.40;7.63;;;32.40;47.90;;;;;;5074907;27;20479;-61
2023/06/18 12:31:17;;;;;;;8.10;7.30;;;32.50;50.00;;;;;;5085369;28;20570;-61
2023/06/18 12:33:45;;;;;;;11.13;8.27;;;32.40;50.80;;;;;;5093274;28;21947;-61
2023/06/18 12:36:12;;;;;;;9.30;8.40;;;32.50;51.20;;;;;;5092985;28;20543;-62